sensor_id;sensor_type;location;lat;lon;timestamp;P1;durP1;ratioP1;P2;durP2;ratioP2
57441;SDS011;43284;47.042;15.498;2023-02-15T00:01:32;48.88;;;16.63;;
57441;SDS011;43284;47.042;15.498;2023-02-15T00:03:58;47.17;;;17.05;;
57441;SDS011;43284;47.042;15.498;2023-02-15T00:06:23;53.25;;;16.90;;
57441;SDS011;43284;47.042;15.498;2023-02-15T00:08:49;43.10;;;17.50;;
57441;SDS011;43284;47.042;15.498;2023-02-15T00:11:16;42.33;;;16.10;;
57441;SDS011;43284;47.042;15.498;2023-02-15T00:14:22;47.30;;;17.55;;
57441;SDS011;43284;47.042;15.498;2023-02-15T00:16:49;54.35;;;18.33;;
57441;SDS011;43284;47.042;15.498;2023-02-15T00:19:18;49.00;;;20.55;;
57441;SDS011;43284;47.042;15.498;2023-02-15T00:21:45;53.10;;;18.00;;
57441;SDS011;43284;47.042;15.498;2023-02-15T00:24:12;57.90;;;22.63;;
57441;SDS011;43284;47.042;15.498;2023-02-15T00:26:39;43.88;;;18.10;;
57441;SDS011;43284;47.042;15.498;2023-02-15T00:29:06;38.85;;;15.60;;
57441;SDS011;43284;47.042;15.498;2023-02-15T00:31:33;42.75;;;16.88;;
57441;SDS011;43284;47.042;15.498;2023-02-15T00:34:03;44.17;;;16.83;;
57441;SDS011;43284;47.042;15.498;2023-02-15T00:36:40;46.47;;;16.33;;
57441;SDS011;43284;47.042;15.498;2023-02-15T00:39:07;50.63;;;18.45;;
57441;SDS011;43284;47.042;15.498;2023-02-15T00:41:33;46.67;;;17.55;;
57441;SDS011;43284;47.042;15.498;2023-02-15T00:43:59;41.83;;;15.73;;
57441;SDS011;43284;47.042;15.498;2023-02-15T00:46:25;46.92;;;17.65;;
57441;SDS011;43284;47.042;15.498;2023-02-15T00:48:51;50.13;;;16.83;;
57441;SDS011;43284;47.042;15.498;2023-02-15T00:51:17;44.45;;;17.08;;
57441;SDS011;43284;47.042;15.498;2023-02-15T00:53:43;45.92;;;19.08;;
57441;SDS011;43284;47.042;15.498;2023-02-15T00:56:09;50.78;;;18.30;;
57441;SDS011;43284;47.042;15.498;2023-02-15T00:58:36;45.95;;;17.13;;
57441;SDS011;43284;47.042;15.498;2023-02-15T01:01:03;55.03;;;19.75;;
57441;SDS011;43284;47.042;15.498;2023-02-15T01:03:35;63.15;;;20.45;;
57441;SDS011;43284;47.042;15.498;2023-02-15T01:06:01;67.07;;;20.33;;
57441;SDS011;43284;47.042;15.498;2023-02-15T01:08:27;52.38;;;19.35;;
57441;SDS011;43284;47.042;15.498;2023-02-15T01:10:52;55.58;;;19.73;;
57441;SDS011;43284;47.042;15.498;2023-02-15T01:13:18;62.05;;;21.63;;
57441;SDS011;43284;47.042;15.498;2023-02-15T01:15:44;61.17;;;21.83;;
57441;SDS011;43284;47.042;15.498;2023-02-15T01:18:10;57.60;;;19.77;;
57441;SDS011;43284;47.042;15.498;2023-02-15T01:20:37;56.10;;;20.35;;
57441;SDS011;43284;47.042;15.498;2023-02-15T01:23:06;59.38;;;20.98;;
57441;SDS011;43284;47.042;15.498;2023-02-15T01:25:33;57.75;;;19.38;;
57441;SDS011;43284;47.042;15.498;2023-02-15T01:28:00;58.30;;;19.80;;
57441;SDS011;43284;47.042;15.498;2023-02-15T01:30:25;54.95;;;18.65;;
57441;SDS011;43284;47.042;15.498;2023-02-15T01:32:51;58.72;;;20.63;;
57441;SDS011;43284;47.042;15.498;2023-02-15T01:35:17;59.50;;;21.35;;
57441;SDS011;43284;47.042;15.498;2023-02-15T01:37:42;59.88;;;20.60;;
57441;SDS011;43284;47.042;15.498;2023-02-15T01:40:10;59.35;;;21.10;;
57441;SDS011;43284;47.042;15.498;2023-02-15T01:42:38;46.95;;;18.33;;
57441;SDS011;43284;47.042;15.498;2023-02-15T01:45:14;61.28;;;22.38;;
57441;SDS011;43284;47.042;15.498;2023-02-15T01:48:33;50.95;;;17.98;;
57441;SDS011;43284;47.042;15.498;2023-02-15T01:50:56;57.97;;;20.90;;
57441;SDS011;43284;47.042;15.498;2023-02-15T01:53:32;56.25;;;19.58;;
57441;SDS011;43284;47.042;15.498;2023-02-15T01:56:08;57.95;;;19.63;;
57441;SDS011;43284;47.042;15.498;2023-02-15T01:58:40;53.22;;;19.80;;
57441;SDS011;43284;47.042;15.498;2023-02-15T02:01:07;54.17;;;20.10;;
57441;SDS011;43284;47.042;15.498;2023-02-15T02:06:23;58.80;;;20.10;;
57441;SDS011;43284;47.042;15.498;2023-02-15T02:08:49;58.28;;;19.23;;
57441;SDS011;43284;47.042;15.498;2023-02-15T02:11:15;53.60;;;20.30;;
57441;SDS011;43284;47.042;15.498;2023-02-15T02:13:41;53.40;;;18.90;;
57441;SDS011;43284;47.042;15.498;2023-02-15T02:31:52;56.58;;;19.55;;
57441;SDS011;43284;47.042;15.498;2023-02-15T02:34:35;51.00;;;17.63;;
57441;SDS011;43284;47.042;15.498;2023-02-15T02:42:44;49.83;;;18.77;;
57441;SDS011;43284;47.042;15.498;2023-02-15T02:45:37;56.90;;;20.17;;
57441;SDS011;43284;47.042;15.498;2023-02-15T02:48:16;52.97;;;20.63;;
57441;SDS011;43284;47.042;15.498;2023-02-15T02:50:48;53.65;;;19.73;;
57441;SDS011;43284;47.042;15.498;2023-02-15T02:53:14;61.35;;;21.88;;
57441;SDS011;43284;47.042;15.498;2023-02-15T03:01:20;53.28;;;19.75;;
57441;SDS011;43284;47.042;15.498;2023-02-15T03:03:49;56.78;;;19.85;;
57441;SDS011;43284;47.042;15.498;2023-02-15T03:07:04;59.47;;;20.85;;
57441;SDS011;43284;47.042;15.498;2023-02-15T03:09:20;69.53;;;23.70;;
57441;SDS011;43284;47.042;15.498;2023-02-15T03:12:06;54.42;;;20.70;;
57441;SDS011;43284;47.042;15.498;2023-02-15T03:14:34;59.28;;;20.38;;
57441;SDS011;43284;47.042;15.498;2023-02-15T03:17:01;58.25;;;21.08;;
57441;SDS011;43284;47.042;15.498;2023-02-15T03:19:33;52.85;;;20.98;;
57441;SDS011;43284;47.042;15.498;2023-02-15T03:22:06;56.35;;;21.58;;
57441;SDS011;43284;47.042;15.498;2023-02-15T03:24:47;69.15;;;23.45;;
57441;SDS011;43284;47.042;15.498;2023-02-15T03:27:30;57.80;;;20.83;;
57441;SDS011;43284;47.042;15.498;2023-02-15T03:29:59;61.83;;;21.33;;
57441;SDS011;43284;47.042;15.498;2023-02-15T03:32:27;52.38;;;19.42;;
57441;SDS011;43284;47.042;15.498;2023-02-15T03:34:56;59.17;;;20.05;;
57441;SDS011;43284;47.042;15.498;2023-02-15T03:40:16;62.22;;;22.70;;
57441;SDS011;43284;47.042;15.498;2023-02-15T03:43:08;52.83;;;18.80;;
57441;SDS011;43284;47.042;15.498;2023-02-15T03:45:40;53.65;;;19.35;;
57441;SDS011;43284;47.042;15.498;2023-02-15T03:48:32;55.83;;;19.75;;
57441;SDS011;43284;47.042;15.498;2023-02-15T03:51:03;57.42;;;20.52;;
57441;SDS011;43284;47.042;15.498;2023-02-15T03:53:51;53.60;;;18.45;;
57441;SDS011;43284;47.042;15.498;2023-02-15T03:56:19;54.53;;;19.13;;
57441;SDS011;43284;47.042;15.498;2023-02-15T03:58:45;54.33;;;19.77;;
57441;SDS011;43284;47.042;15.498;2023-02-15T04:01:34;48.13;;;17.70;;
57441;SDS011;43284;47.042;15.498;2023-02-15T04:04:28;50.17;;;19.33;;
57441;SDS011;43284;47.042;15.498;2023-02-15T04:06:59;54.17;;;19.52;;
57441;SDS011;43284;47.042;15.498;2023-02-15T04:09:25;58.58;;;18.83;;
57441;SDS011;43284;47.042;15.498;2023-02-15T04:12:09;55.20;;;19.88;;
57441;SDS011;43284;47.042;15.498;2023-02-15T04:14:35;51.67;;;17.77;;
57441;SDS011;43284;47.042;15.498;2023-02-15T04:19:44;50.83;;;17.15;;
57441;SDS011;43284;47.042;15.498;2023-02-15T04:22:28;56.03;;;19.20;;
57441;SDS011;43284;47.042;15.498;2023-02-15T04:25:12;45.28;;;17.58;;
57441;SDS011;43284;47.042;15.498;2023-02-15T04:27:42;50.47;;;17.65;;
57441;SDS011;43284;47.042;15.498;2023-02-15T04:30:10;54.45;;;19.88;;
57441;SDS011;43284;47.042;15.498;2023-02-15T04:32:37;47.92;;;18.50;;
57441;SDS011;43284;47.042;15.498;2023-02-15T04:35:04;58.40;;;20.33;;
57441;SDS011;43284;47.042;15.498;2023-02-15T04:37:30;56.38;;;19.10;;
57441;SDS011;43284;47.042;15.498;2023-02-15T04:39:56;60.05;;;20.88;;
57441;SDS011;43284;47.042;15.498;2023-02-15T04:42:24;58.45;;;21.65;;
57441;SDS011;43284;47.042;15.498;2023-02-15T04:44:50;57.72;;;20.23;;
57441;SDS011;43284;47.042;15.498;2023-02-15T04:47:16;57.60;;;19.55;;
57441;SDS011;43284;47.042;15.498;2023-02-15T04:49:42;57.47;;;19.45;;
57441;SDS011;43284;47.042;15.498;2023-02-15T04:52:08;50.78;;;19.35;;
57441;SDS011;43284;47.042;15.498;2023-02-15T04:54:34;56.03;;;21.17;;
57441;SDS011;43284;47.042;15.498;2023-02-15T04:57:03;50.63;;;19.35;;
57441;SDS011;43284;47.042;15.498;2023-02-15T04:59:29;54.10;;;18.77;;
57441;SDS011;43284;47.042;15.498;2023-02-15T05:01:54;51.70;;;18.00;;
57441;SDS011;43284;47.042;15.498;2023-02-15T05:04:20;48.75;;;18.80;;
57441;SDS011;43284;47.042;15.498;2023-02-15T05:06:46;50.60;;;19.77;;
57441;SDS011;43284;47.042;15.498;2023-02-15T05:09:11;52.25;;;19.80;;
57441;SDS011;43284;47.042;15.498;2023-02-15T05:11:37;48.72;;;19.13;;
57441;SDS011;43284;47.042;15.498;2023-02-15T05:14:04;57.47;;;19.98;;
57441;SDS011;43284;47.042;15.498;2023-02-15T05:16:29;53.90;;;21.02;;
57441;SDS011;43284;47.042;15.498;2023-02-15T05:18:55;53.80;;;19.30;;
57441;SDS011;43284;47.042;15.498;2023-02-15T05:21:21;53.55;;;20.83;;
57441;SDS011;43284;47.042;15.498;2023-02-15T05:23:46;50.42;;;19.50;;
57441;SDS011;43284;47.042;15.498;2023-02-15T05:26:16;52.53;;;20.83;;
57441;SDS011;43284;47.042;15.498;2023-02-15T05:29:06;39.03;;;15.23;;
57441;SDS011;43284;47.042;15.498;2023-02-15T05:31:33;54.17;;;20.98;;
57441;SDS011;43284;47.042;15.498;2023-02-15T05:33:59;45.00;;;17.70;;
57441;SDS011;43284;47.042;15.498;2023-02-15T05:36:25;50.88;;;19.02;;
57441;SDS011;43284;47.042;15.498;2023-02-15T05:38:51;52.92;;;19.83;;
57441;SDS011;43284;47.042;15.498;2023-02-15T05:41:17;48.97;;;19.63;;
57441;SDS011;43284;47.042;15.498;2023-02-15T05:43:43;47.22;;;19.00;;
57441;SDS011;43284;47.042;15.498;2023-02-15T05:46:08;48.63;;;17.98;;
57441;SDS011;43284;47.042;15.498;2023-02-15T05:48:35;47.67;;;19.23;;
57441;SDS011;43284;47.042;15.498;2023-02-15T05:51:05;51.72;;;20.25;;
57441;SDS011;43284;47.042;15.498;2023-02-15T05:53:37;59.10;;;20.63;;
57441;SDS011;43284;47.042;15.498;2023-02-15T05:56:04;57.45;;;21.52;;
57441;SDS011;43284;47.042;15.498;2023-02-15T05:58:36;57.33;;;20.02;;
57441;SDS011;43284;47.042;15.498;2023-02-15T06:01:13;57.35;;;20.40;;
57441;SDS011;43284;47.042;15.498;2023-02-15T06:03:40;59.72;;;20.10;;
57441;SDS011;43284;47.042;15.498;2023-02-15T06:06:06;52.30;;;21.40;;
57441;SDS011;43284;47.042;15.498;2023-02-15T06:08:33;53.75;;;21.40;;
57441;SDS011;43284;47.042;15.498;2023-02-15T06:10:59;56.40;;;21.08;;
57441;SDS011;43284;47.042;15.498;2023-02-15T06:13:26;54.13;;;20.13;;
57441;SDS011;43284;47.042;15.498;2023-02-15T06:15:52;54.67;;;19.65;;
57441;SDS011;43284;47.042;15.498;2023-02-15T06:18:17;51.58;;;19.40;;
57441;SDS011;43284;47.042;15.498;2023-02-15T06:20:46;52.75;;;19.42;;
57441;SDS011;43284;47.042;15.498;2023-02-15T06:23:13;53.00;;;19.77;;
57441;SDS011;43284;47.042;15.498;2023-02-15T06:25:39;55.20;;;20.38;;
57441;SDS011;43284;47.042;15.498;2023-02-15T06:28:04;47.47;;;18.58;;
57441;SDS011;43284;47.042;15.498;2023-02-15T06:30:30;57.47;;;21.00;;
57441;SDS011;43284;47.042;15.498;2023-02-15T06:32:56;54.60;;;19.55;;
57441;SDS011;43284;47.042;15.498;2023-02-15T06:35:22;56.08;;;21.80;;
57441;SDS011;43284;47.042;15.498;2023-02-15T06:37:48;55.50;;;22.20;;
57441;SDS011;43284;47.042;15.498;2023-02-15T06:40:14;54.92;;;21.30;;
57441;SDS011;43284;47.042;15.498;2023-02-15T06:42:43;59.08;;;20.60;;
57441;SDS011;43284;47.042;15.498;2023-02-15T06:45:09;51.28;;;18.58;;
57441;SDS011;43284;47.042;15.498;2023-02-15T06:47:35;52.38;;;20.48;;
57441;SDS011;43284;47.042;15.498;2023-02-15T06:50:00;52.58;;;20.92;;
57441;SDS011;43284;47.042;15.498;2023-02-15T06:52:26;50.35;;;20.42;;
57441;SDS011;43284;47.042;15.498;2023-02-15T06:54:53;63.95;;;22.17;;
57441;SDS011;43284;47.042;15.498;2023-02-15T06:57:19;63.13;;;23.02;;
57441;SDS011;43284;47.042;15.498;2023-02-15T06:59:44;60.33;;;23.70;;
57441;SDS011;43284;47.042;15.498;2023-02-15T07:02:13;74.47;;;24.55;;
57441;SDS011;43284;47.042;15.498;2023-02-15T07:04:39;65.97;;;23.17;;
57441;SDS011;43284;47.042;15.498;2023-02-15T07:07:07;72.45;;;23.77;;
57441;SDS011;43284;47.042;15.498;2023-02-15T07:09:35;62.95;;;23.88;;
57441;SDS011;43284;47.042;15.498;2023-02-15T07:12:01;73.18;;;24.27;;
57441;SDS011;43284;47.042;15.498;2023-02-15T07:14:46;65.18;;;23.52;;
57441;SDS011;43284;47.042;15.498;2023-02-15T07:17:11;61.13;;;23.65;;
57441;SDS011;43284;47.042;15.498;2023-02-15T07:19:37;60.15;;;25.63;;
57441;SDS011;43284;47.042;15.498;2023-02-15T07:22:03;60.33;;;22.52;;
57441;SDS011;43284;47.042;15.498;2023-02-15T07:24:30;59.25;;;23.17;;
57441;SDS011;43284;47.042;15.498;2023-02-15T07:26:56;66.10;;;22.83;;
57441;SDS011;43284;47.042;15.498;2023-02-15T07:29:22;61.45;;;21.65;;
57441;SDS011;43284;47.042;15.498;2023-02-15T07:31:48;66.50;;;25.92;;
57441;SDS011;43284;47.042;15.498;2023-02-15T07:34:14;67.68;;;23.73;;
57441;SDS011;43284;47.042;15.498;2023-02-15T07:36:41;62.40;;;24.90;;
57441;SDS011;43284;47.042;15.498;2023-02-15T07:39:09;69.90;;;24.88;;
57441;SDS011;43284;47.042;15.498;2023-02-15T07:41:35;64.93;;;25.02;;
57441;SDS011;43284;47.042;15.498;2023-02-15T07:44:00;60.78;;;24.20;;
57441;SDS011;43284;47.042;15.498;2023-02-15T07:46:26;65.50;;;25.20;;
57441;SDS011;43284;47.042;15.498;2023-02-15T07:48:51;58.08;;;24.08;;
57441;SDS011;43284;47.042;15.498;2023-02-15T07:51:17;60.03;;;23.25;;
57441;SDS011;43284;47.042;15.498;2023-02-15T07:53:43;62.45;;;23.02;;
57441;SDS011;43284;47.042;15.498;2023-02-15T07:56:09;64.70;;;22.50;;
57441;SDS011;43284;47.042;15.498;2023-02-15T07:58:37;64.88;;;25.00;;
57441;SDS011;43284;47.042;15.498;2023-02-15T08:01:22;58.30;;;22.05;;
57441;SDS011;43284;47.042;15.498;2023-02-15T08:03:56;60.00;;;23.13;;
57441;SDS011;43284;47.042;15.498;2023-02-15T08:06:22;60.20;;;24.00;;
57441;SDS011;43284;47.042;15.498;2023-02-15T08:08:50;60.90;;;24.33;;
57441;SDS011;43284;47.042;15.498;2023-02-15T08:16:40;68.55;;;24.98;;
57441;SDS011;43284;47.042;15.498;2023-02-15T08:21:52;62.03;;;23.90;;
57441;SDS011;43284;47.042;15.498;2023-02-15T08:24:22;71.43;;;23.20;;
57441;SDS011;43284;47.042;15.498;2023-02-15T08:26:51;57.42;;;23.10;;
57441;SDS011;43284;47.042;15.498;2023-02-15T08:29:18;65.72;;;24.02;;
57441;SDS011;43284;47.042;15.498;2023-02-15T08:31:46;67.07;;;23.27;;
57441;SDS011;43284;47.042;15.498;2023-02-15T08:34:14;61.58;;;23.40;;
57441;SDS011;43284;47.042;15.498;2023-02-15T08:36:44;67.70;;;24.05;;
57441;SDS011;43284;47.042;15.498;2023-02-15T08:39:13;63.10;;;24.25;;
57441;SDS011;43284;47.042;15.498;2023-02-15T08:41:41;69.45;;;25.88;;
57441;SDS011;43284;47.042;15.498;2023-02-15T08:44:08;61.72;;;24.15;;
57441;SDS011;43284;47.042;15.498;2023-02-15T08:46:36;63.88;;;24.42;;
57441;SDS011;43284;47.042;15.498;2023-02-15T08:49:04;64.55;;;24.27;;
57441;SDS011;43284;47.042;15.498;2023-02-15T08:51:32;69.88;;;24.27;;
57441;SDS011;43284;47.042;15.498;2023-02-15T08:54:01;65.95;;;24.58;;
57441;SDS011;43284;47.042;15.498;2023-02-15T08:56:33;62.88;;;23.17;;
57441;SDS011;43284;47.042;15.498;2023-02-15T08:59:01;66.60;;;25.45;;
57441;SDS011;43284;47.042;15.498;2023-02-15T09:01:28;67.90;;;23.88;;
57441;SDS011;43284;47.042;15.498;2023-02-15T09:03:56;69.10;;;25.58;;
57441;SDS011;43284;47.042;15.498;2023-02-15T09:06:24;65.00;;;24.92;;
57441;SDS011;43284;47.042;15.498;2023-02-15T09:08:50;66.65;;;25.20;;
57441;SDS011;43284;47.042;15.498;2023-02-15T09:11:21;60.30;;;23.80;;
57441;SDS011;43284;47.042;15.498;2023-02-15T09:13:53;61.20;;;23.95;;
57441;SDS011;43284;47.042;15.498;2023-02-15T09:16:30;67.57;;;24.90;;
57441;SDS011;43284;47.042;15.498;2023-02-15T09:18:57;64.70;;;24.42;;
57441;SDS011;43284;47.042;15.498;2023-02-15T09:21:23;66.05;;;24.10;;
57441;SDS011;43284;47.042;15.498;2023-02-15T09:23:51;65.43;;;24.02;;
57441;SDS011;43284;47.042;15.498;2023-02-15T09:26:21;63.65;;;24.45;;
57441;SDS011;43284;47.042;15.498;2023-02-15T09:28:50;60.08;;;24.63;;
57441;SDS011;43284;47.042;15.498;2023-02-15T09:31:18;63.83;;;23.45;;
57441;SDS011;43284;47.042;15.498;2023-02-15T09:33:46;66.05;;;25.02;;
57441;SDS011;43284;47.042;15.498;2023-02-15T09:36:20;65.70;;;24.58;;
57441;SDS011;43284;47.042;15.498;2023-02-15T09:38:56;57.25;;;24.30;;
57441;SDS011;43284;47.042;15.498;2023-02-15T09:55:33;66.93;;;24.42;;
57441;SDS011;43284;47.042;15.498;2023-02-15T10:06:35;68.97;;;23.70;;
57441;SDS011;43284;47.042;15.498;2023-02-15T10:12:14;69.45;;;24.70;;
57441;SDS011;43284;47.042;15.498;2023-02-15T10:20:25;65.00;;;23.60;;
57441;SDS011;43284;47.042;15.498;2023-02-15T10:31:27;64.63;;;23.65;;
57441;SDS011;43284;47.042;15.498;2023-02-15T10:44:55;64.85;;;22.75;;
57441;SDS011;43284;47.042;15.498;2023-02-15T11:02:12;68.20;;;24.60;;
57441;SDS011;43284;47.042;15.498;2023-02-15T11:07:20;69.43;;;25.58;;
57441;SDS011;43284;47.042;15.498;2023-02-15T11:09:56;69.38;;;23.73;;
57441;SDS011;43284;47.042;15.498;2023-02-15T11:12:46;66.45;;;27.20;;
57441;SDS011;43284;47.042;15.498;2023-02-15T11:18:32;58.63;;;21.92;;
57441;SDS011;43284;47.042;15.498;2023-02-15T11:21:28;62.53;;;22.80;;
57441;SDS011;43284;47.042;15.498;2023-02-15T11:24:14;64.95;;;23.65;;
57441;SDS011;43284;47.042;15.498;2023-02-15T11:26:54;60.40;;;22.63;;
57441;SDS011;43284;47.042;15.498;2023-02-15T11:29:29;70.85;;;24.02;;
57441;SDS011;43284;47.042;15.498;2023-02-15T11:31:57;60.45;;;23.48;;
57441;SDS011;43284;47.042;15.498;2023-02-15T11:34:27;62.13;;;23.35;;
57441;SDS011;43284;47.042;15.498;2023-02-15T11:36:59;63.80;;;24.15;;
57441;SDS011;43284;47.042;15.498;2023-02-15T11:39:32;64.05;;;23.55;;
57441;SDS011;43284;47.042;15.498;2023-02-15T11:42:01;64.90;;;23.23;;
57441;SDS011;43284;47.042;15.498;2023-02-15T11:44:34;59.22;;;21.88;;
57441;SDS011;43284;47.042;15.498;2023-02-15T11:47:08;65.05;;;24.02;;
57441;SDS011;43284;47.042;15.498;2023-02-15T11:49:36;65.22;;;24.73;;
57441;SDS011;43284;47.042;15.498;2023-02-15T11:52:06;65.20;;;23.25;;
57441;SDS011;43284;47.042;15.498;2023-02-15T11:54:36;63.83;;;24.95;;
57441;SDS011;43284;47.042;15.498;2023-02-15T12:02:40;66.10;;;24.00;;
57441;SDS011;43284;47.042;15.498;2023-02-15T12:05:13;66.60;;;24.80;;
57441;SDS011;43284;47.042;15.498;2023-02-15T12:07:57;60.78;;;22.33;;
57441;SDS011;43284;47.042;15.498;2023-02-15T12:10:40;61.47;;;23.35;;
57441;SDS011;43284;47.042;15.498;2023-02-15T12:15:46;63.92;;;22.27;;
57441;SDS011;43284;47.042;15.498;2023-02-15T12:21:11;66.47;;;24.17;;
57441;SDS011;43284;47.042;15.498;2023-02-15T12:23:46;59.65;;;21.77;;
57441;SDS011;43284;47.042;15.498;2023-02-15T12:26:15;61.58;;;23.00;;
57441;SDS011;43284;47.042;15.498;2023-02-15T12:28:49;60.90;;;22.02;;
57441;SDS011;43284;47.042;15.498;2023-02-15T12:31:21;55.85;;;22.13;;
57441;SDS011;43284;47.042;15.498;2023-02-15T12:34:02;59.13;;;24.23;;
57441;SDS011;43284;47.042;15.498;2023-02-15T12:36:44;56.45;;;21.85;;
57441;SDS011;43284;47.042;15.498;2023-02-15T12:41:46;67.60;;;24.15;;
57441;SDS011;43284;47.042;15.498;2023-02-15T12:44:23;61.63;;;21.55;;
57441;SDS011;43284;47.042;15.498;2023-02-15T12:49:42;61.95;;;21.95;;
57441;SDS011;43284;47.042;15.498;2023-02-15T12:54:45;60.65;;;22.58;;
57441;SDS011;43284;47.042;15.498;2023-02-15T12:57:26;64.97;;;25.17;;
57441;SDS011;43284;47.042;15.498;2023-02-15T12:59:57;64.13;;;23.23;;
57441;SDS011;43284;47.042;15.498;2023-02-15T13:02:43;61.40;;;24.17;;
57441;SDS011;43284;47.042;15.498;2023-02-15T13:11:24;68.38;;;24.45;;
57441;SDS011;43284;47.042;15.498;2023-02-15T13:13:35;61.60;;;23.33;;
57441;SDS011;43284;47.042;15.498;2023-02-15T13:16:11;62.65;;;23.67;;
57441;SDS011;43284;47.042;15.498;2023-02-15T13:18:44;72.88;;;25.23;;
57441;SDS011;43284;47.042;15.498;2023-02-15T13:21:19;69.38;;;23.33;;
57441;SDS011;43284;47.042;15.498;2023-02-15T13:23:57;62.58;;;23.00;;
57441;SDS011;43284;47.042;15.498;2023-02-15T13:26:29;69.05;;;23.52;;
57441;SDS011;43284;47.042;15.498;2023-02-15T13:28:58;54.53;;;22.30;;
57441;SDS011;43284;47.042;15.498;2023-02-15T13:31:33;65.75;;;22.92;;
57441;SDS011;43284;47.042;15.498;2023-02-15T13:34:09;62.35;;;24.85;;
57441;SDS011;43284;47.042;15.498;2023-02-15T13:42:05;65.95;;;22.88;;
57441;SDS011;43284;47.042;15.498;2023-02-15T13:56:00;60.30;;;23.10;;
57441;SDS011;43284;47.042;15.498;2023-02-15T14:01:28;60.88;;;21.38;;
57441;SDS011;43284;47.042;15.498;2023-02-15T14:18:18;60.80;;;21.20;;
57441;SDS011;43284;47.042;15.498;2023-02-15T14:21:08;54.03;;;21.00;;
57441;SDS011;43284;47.042;15.498;2023-02-15T14:29:16;59.13;;;22.95;;
57441;SDS011;43284;47.042;15.498;2023-02-15T14:31:55;62.33;;;21.67;;
57441;SDS011;43284;47.042;15.498;2023-02-15T14:34:31;68.53;;;23.10;;
57441;SDS011;43284;47.042;15.498;2023-02-15T14:37:08;62.33;;;22.40;;
57441;SDS011;43284;47.042;15.498;2023-02-15T14:39:55;57.85;;;21.98;;
57441;SDS011;43284;47.042;15.498;2023-02-15T14:43:11;66.05;;;22.25;;
57441;SDS011;43284;47.042;15.498;2023-02-15T14:45:55;63.67;;;24.65;;
57441;SDS011;43284;47.042;15.498;2023-02-15T14:48:28;68.40;;;22.65;;
57441;SDS011;43284;47.042;15.498;2023-02-15T14:50:57;69.10;;;24.00;;
57441;SDS011;43284;47.042;15.498;2023-02-15T14:53:33;64.38;;;23.23;;
57441;SDS011;43284;47.042;15.498;2023-02-15T14:58:36;66.10;;;24.10;;
57441;SDS011;43284;47.042;15.498;2023-02-15T15:01:06;62.45;;;22.48;;
57441;SDS011;43284;47.042;15.498;2023-02-15T15:03:33;65.88;;;23.23;;
57441;SDS011;43284;47.042;15.498;2023-02-15T15:06:01;61.83;;;22.92;;
57441;SDS011;43284;47.042;15.498;2023-02-15T15:08:37;67.72;;;24.35;;
57441;SDS011;43284;47.042;15.498;2023-02-15T15:14:36;67.25;;;23.10;;
57441;SDS011;43284;47.042;15.498;2023-02-15T15:17:00;65.30;;;21.63;;
57441;SDS011;43284;47.042;15.498;2023-02-15T15:22:24;58.67;;;22.00;;
57441;SDS011;43284;47.042;15.498;2023-02-15T15:27:37;60.72;;;22.80;;
57441;SDS011;43284;47.042;15.498;2023-02-15T15:41:43;62.15;;;19.38;;
57441;SDS011;43284;47.042;15.498;2023-02-15T15:50:11;63.83;;;21.30;;
57441;SDS011;43284;47.042;15.498;2023-02-15T15:52:39;64.65;;;21.85;;
57441;SDS011;43284;47.042;15.498;2023-02-15T15:55:17;64.78;;;22.10;;
57441;SDS011;43284;47.042;15.498;2023-02-15T15:57:45;63.65;;;20.30;;
57441;SDS011;43284;47.042;15.498;2023-02-15T16:00:33;59.60;;;21.77;;
57441;SDS011;43284;47.042;15.498;2023-02-15T16:03:25;55.38;;;19.70;;
57441;SDS011;43284;47.042;15.498;2023-02-15T16:05:52;59.05;;;21.92;;
57441;SDS011;43284;47.042;15.498;2023-02-15T16:08:29;58.45;;;19.23;;
57441;SDS011;43284;47.042;15.498;2023-02-15T16:10:57;58.33;;;21.00;;
57441;SDS011;43284;47.042;15.498;2023-02-15T16:13:24;66.95;;;21.08;;
57441;SDS011;43284;47.042;15.498;2023-02-15T16:15:52;57.25;;;20.13;;
57441;SDS011;43284;47.042;15.498;2023-02-15T16:18:21;59.35;;;20.15;;
57441;SDS011;43284;47.042;15.498;2023-02-15T16:20:53;56.70;;;19.48;;
57441;SDS011;43284;47.042;15.498;2023-02-15T16:28:47;58.13;;;19.63;;
57441;SDS011;43284;47.042;15.498;2023-02-15T16:31:14;58.45;;;18.27;;
57441;SDS011;43284;47.042;15.498;2023-02-15T16:33:41;64.13;;;21.58;;
57441;SDS011;43284;47.042;15.498;2023-02-15T16:36:11;54.95;;;19.75;;
57441;SDS011;43284;47.042;15.498;2023-02-15T16:41:13;57.95;;;20.05;;
57441;SDS011;43284;47.042;15.498;2023-02-15T16:43:43;58.92;;;18.52;;
57441;SDS011;43284;47.042;15.498;2023-02-15T16:46:15;59.67;;;19.67;;
57441;SDS011;43284;47.042;15.498;2023-02-15T16:48:45;60.10;;;19.67;;
57441;SDS011;43284;47.042;15.498;2023-02-15T16:51:26;55.08;;;19.65;;
57441;SDS011;43284;47.042;15.498;2023-02-15T16:53:54;64.90;;;20.92;;
57441;SDS011;43284;47.042;15.498;2023-02-15T16:56:25;57.17;;;20.15;;
57441;SDS011;43284;47.042;15.498;2023-02-15T16:58:55;62.15;;;20.80;;
57441;SDS011;43284;47.042;15.498;2023-02-15T17:01:23;59.20;;;19.58;;
57441;SDS011;43284;47.042;15.498;2023-02-15T17:04:10;49.20;;;18.50;;
57441;SDS011;43284;47.042;15.498;2023-02-15T17:06:38;51.78;;;17.02;;
57441;SDS011;43284;47.042;15.498;2023-02-15T17:09:05;54.13;;;19.92;;
57441;SDS011;43284;47.042;15.498;2023-02-15T17:11:42;57.67;;;19.85;;
57441;SDS011;43284;47.042;15.498;2023-02-15T17:19:33;53.50;;;18.75;;
57441;SDS011;43284;47.042;15.498;2023-02-15T17:22:24;60.65;;;19.75;;
57441;SDS011;43284;47.042;15.498;2023-02-15T17:24:59;60.90;;;20.38;;
57441;SDS011;43284;47.042;15.498;2023-02-15T17:27:27;68.43;;;21.08;;
57441;SDS011;43284;47.042;15.498;2023-02-15T17:29:57;64.82;;;22.85;;
57441;SDS011;43284;47.042;15.498;2023-02-15T17:32:42;66.75;;;22.90;;
57441;SDS011;43284;47.042;15.498;2023-02-15T17:35:21;57.08;;;21.17;;
57441;SDS011;43284;47.042;15.498;2023-02-15T17:40:29;70.57;;;22.77;;
57441;SDS011;43284;47.042;15.498;2023-02-15T17:42:59;65.80;;;22.23;;
57441;SDS011;43284;47.042;15.498;2023-02-15T17:45:30;68.47;;;24.42;;
57441;SDS011;43284;47.042;15.498;2023-02-15T17:48:02;59.35;;;21.10;;
57441;SDS011;43284;47.042;15.498;2023-02-15T17:50:29;74.35;;;24.20;;
57441;SDS011;43284;47.042;15.498;2023-02-15T17:52:55;72.88;;;23.58;;
57441;SDS011;43284;47.042;15.498;2023-02-15T17:55:23;66.13;;;22.85;;
57441;SDS011;43284;47.042;15.498;2023-02-15T17:58:15;66.70;;;22.83;;
57441;SDS011;43284;47.042;15.498;2023-02-15T18:00:44;72.28;;;22.88;;
57441;SDS011;43284;47.042;15.498;2023-02-15T18:06:23;70.00;;;24.55;;
57441;SDS011;43284;47.042;15.498;2023-02-15T18:09:12;69.55;;;23.05;;
57441;SDS011;43284;47.042;15.498;2023-02-15T18:11:57;63.20;;;24.13;;
57441;SDS011;43284;47.042;15.498;2023-02-15T18:14:23;78.15;;;24.83;;
57441;SDS011;43284;47.042;15.498;2023-02-15T18:16:49;70.35;;;23.50;;
57441;SDS011;43284;47.042;15.498;2023-02-15T18:19:16;66.72;;;23.90;;